createdAt,value
2022-12-20T00:01:01.469Z,51.88
2022-12-20T00:03:29.121Z,40.90
2022-12-20T00:05:56.610Z,44.97
2022-12-20T00:08:24.435Z,45.08
2022-12-20T00:10:52.062Z,46.75
2022-12-20T00:13:19.877Z,48.70
2022-12-20T00:15:47.531Z,43.60
2022-12-20T00:18:15.012Z,44.47
2022-12-20T00:20:42.651Z,44.80
2022-12-20T00:23:10.690Z,48.13
2022-12-20T00:25:38.372Z,46.60
2022-12-20T00:28:05.996Z,45.00
2022-12-20T00:30:33.866Z,43.63
2022-12-20T00:33:01.431Z,43.30
2022-12-20T00:35:28.880Z,49.72
2022-12-20T00:37:56.630Z,46.97
2022-12-20T00:40:24.116Z,42.75
2022-12-20T00:42:51.714Z,45.75
2022-12-20T00:45:19.270Z,45.28
2022-12-20T00:47:47.450Z,46.50
2022-12-20T00:50:15.198Z,43.30
2022-12-20T00:52:43.070Z,47.83
2022-12-20T00:55:10.591Z,47.80
2022-12-20T00:57:38.381Z,47.97
2022-12-20T01:00:07.472Z,47.00
2022-12-20T01:02:35.260Z,47.28
2022-12-20T01:05:03.338Z,50.50
2022-12-20T01:07:31.250Z,44.42
2022-12-20T01:09:58.936Z,52.72
2022-12-20T01:12:26.459Z,43.47
2022-12-20T01:14:54.135Z,47.30
2022-12-20T01:17:22.147Z,43.78
2022-12-20T01:19:49.751Z,48.97
2022-12-20T01:22:17.446Z,47.45
2022-12-20T01:24:44.969Z,56.72
2022-12-20T01:27:12.549Z,52.80
2022-12-20T01:29:40.227Z,48.75
2022-12-20T01:32:07.773Z,55.47
2022-12-20T01:34:35.424Z,53.13
2022-12-20T01:37:03.245Z,52.88
2022-12-20T01:39:30.801Z,52.63
2022-12-20T01:41:58.421Z,54.90
2022-12-20T01:44:26.067Z,46.47
2022-12-20T01:46:54.435Z,48.33
2022-12-20T01:49:27.252Z,49.25
2022-12-20T01:51:57.308Z,45.72
2022-12-20T01:54:27.139Z,42.53
2022-12-20T01:56:59.169Z,46.78
2022-12-20T01:59:27.339Z,51.40
2022-12-20T02:01:56.587Z,48.90
2022-12-20T02:04:24.160Z,45.05
2022-12-20T02:06:51.990Z,46.63
2022-12-20T02:09:19.698Z,53.33
2022-12-20T02:12:10.331Z,44.80
2022-12-20T02:14:56.356Z,42.70
2022-12-20T02:17:30.125Z,42.30
2022-12-20T02:20:07.524Z,40.95
2022-12-20T02:22:53.388Z,46.17
2022-12-20T02:25:20.951Z,49.03
2022-12-20T02:27:57.828Z,44.55
2022-12-20T02:30:28.191Z,47.50
2022-12-20T02:33:01.137Z,50.15
2022-12-20T02:35:30.862Z,50.28
2022-12-20T02:38:00.721Z,45.40
2022-12-20T02:40:35.172Z,47.97
2022-12-20T02:43:25.668Z,44.20
2022-12-20T02:45:54.149Z,49.67
2022-12-20T02:48:22.685Z,45.63
2022-12-20T02:50:51.559Z,47.30
2022-12-20T02:53:19.642Z,44.53
2022-12-20T02:55:49.087Z,43.78
2022-12-20T02:58:24.556Z,47.53
2022-12-20T03:00:52.651Z,44.92
2022-12-20T03:03:23.067Z,49.75
2022-12-20T03:05:52.351Z,46.17
2022-12-20T03:08:20.848Z,48.55
2022-12-20T03:10:48.826Z,46.10
2022-12-20T03:13:16.386Z,43.63
2022-12-20T03:15:44.118Z,43.67
2022-12-20T03:18:11.741Z,45.42
2022-12-20T03:20:40.064Z,48.67
2022-12-20T03:23:07.795Z,44.55
2022-12-20T03:25:35.530Z,44.55
2022-12-20T03:28:03.061Z,44.95
2022-12-20T03:30:30.828Z,45.65
2022-12-20T03:32:58.481Z,40.75
2022-12-20T03:35:26.096Z,41.47
2022-12-20T03:37:53.604Z,49.45
2022-12-20T03:40:21.237Z,44.08
2022-12-20T03:42:49.188Z,45.33
2022-12-20T03:45:16.797Z,48.13
2022-12-20T03:47:44.647Z,45.80
2022-12-20T03:50:12.732Z,43.95
2022-12-20T03:52:40.647Z,43.42
2022-12-20T03:55:08.615Z,42.85
2022-12-20T03:57:36.800Z,46.42
2022-12-20T04:00:04.750Z,46.63
2022-12-20T04:02:32.786Z,45.83
2022-12-20T04:05:00.723Z,42.75
2022-12-20T04:07:28.343Z,44.58
2022-12-20T04:09:55.928Z,44.75
2022-12-20T04:12:23.807Z,40.67
2022-12-20T04:14:51.446Z,42.83
2022-12-20T04:17:19.052Z,44.85
2022-12-20T04:19:46.560Z,40.55
2022-12-20T04:22:14.416Z,40.90
2022-12-20T04:24:42.222Z,42.50
2022-12-20T04:27:09.686Z,42.72
2022-12-20T04:29:37.303Z,40.72
2022-12-20T04:32:05.265Z,40.00
2022-12-20T04:34:33.103Z,41.20
2022-12-20T04:37:00.540Z,45.10
2022-12-20T04:39:28.200Z,48.83
2022-12-20T04:41:55.978Z,49.72
2022-12-20T04:44:23.896Z,42.85
2022-12-20T04:46:53.495Z,44.33
2022-12-20T04:49:21.310Z,43.17
2022-12-20T04:51:48.958Z,45.95
2022-12-20T04:54:16.623Z,37.38
2022-12-20T04:56:44.163Z,42.10
2022-12-20T04:59:12.924Z,42.13
2022-12-20T05:01:40.571Z,42.22
2022-12-20T05:04:08.354Z,41.20
2022-12-20T05:06:36.023Z,35.30
2022-12-20T05:09:03.908Z,42.22
2022-12-20T05:11:31.408Z,37.92
2022-12-20T05:13:59.106Z,38.70
2022-12-20T05:16:26.956Z,42.72
2022-12-20T05:18:55.191Z,36.60
2022-12-20T05:21:41.727Z,39.05
2022-12-20T05:24:28.914Z,39.78
2022-12-20T05:26:56.769Z,39.88
2022-12-20T05:29:24.393Z,40.72
2022-12-20T05:31:52.097Z,39.13
2022-12-20T05:34:19.470Z,41.22
2022-12-20T05:36:47.173Z,39.53
2022-12-20T05:39:14.839Z,40.60
2022-12-20T05:41:42.496Z,42.25
2022-12-20T05:44:10.181Z,32.92
2022-12-20T05:46:38.085Z,40.10
2022-12-20T05:49:05.710Z,38.83
2022-12-20T05:51:33.459Z,35.17
2022-12-20T05:54:01.129Z,39.00
2022-12-20T05:56:28.990Z,39.72
2022-12-20T05:58:57.298Z,39.03
2022-12-20T06:01:24.890Z,40.75
2022-12-20T06:03:53.313Z,37.95
2022-12-20T06:06:20.897Z,43.10
2022-12-20T06:08:48.459Z,41.25
2022-12-20T06:11:16.181Z,39.55
2022-12-20T06:13:43.770Z,37.05
2022-12-20T06:16:11.339Z,35.60
2022-12-20T06:18:38.969Z,41.85
2022-12-20T06:21:06.592Z,40.60
2022-12-20T06:23:34.989Z,40.45
2022-12-20T06:26:02.772Z,38.78
2022-12-20T06:28:31.092Z,37.05
2022-12-20T06:30:59.135Z,40.88
2022-12-20T06:33:27.261Z,37.17
2022-12-20T06:35:55.380Z,37.38
2022-12-20T06:38:23.000Z,36.20
2022-12-20T06:40:50.887Z,40.10
2022-12-20T06:43:18.539Z,42.55
2022-12-20T06:45:46.133Z,44.47
2022-12-20T06:48:14.019Z,40.28
2022-12-20T06:50:41.633Z,40.25
2022-12-20T06:53:09.221Z,44.72
2022-12-20T06:55:36.900Z,46.40
2022-12-20T06:58:05.280Z,40.55
2022-12-20T07:00:33.242Z,44.58
2022-12-20T07:03:01.003Z,42.60
2022-12-20T07:05:28.703Z,47.50
2022-12-20T07:07:56.696Z,51.85
2022-12-20T07:10:24.311Z,43.38
2022-12-20T07:12:53.313Z,43.22
2022-12-20T07:15:22.668Z,42.88
2022-12-20T07:17:50.383Z,47.75
2022-12-20T07:20:19.151Z,46.35
2022-12-20T07:22:53.184Z,49.85
2022-12-20T07:27:50.381Z,35.05
2022-12-20T07:30:19.403Z,41.90
2022-12-20T07:32:47.294Z,45.65
2022-12-20T07:35:15.883Z,41.95
2022-12-20T07:37:44.056Z,38.50
2022-12-20T07:40:12.920Z,37.65
2022-12-20T07:42:47.959Z,48.08
2022-12-20T07:45:16.279Z,43.13
2022-12-20T07:47:44.541Z,40.22
2022-12-20T07:50:12.294Z,42.55
2022-12-20T07:52:41.496Z,41.15
2022-12-20T07:55:10.897Z,45.60
2022-12-20T07:57:47.021Z,45.85
2022-12-20T08:00:15.332Z,38.30
2022-12-20T08:02:47.777Z,40.88
2022-12-20T08:05:16.390Z,44.65
2022-12-20T08:07:44.642Z,42.22
2022-12-20T08:10:13.384Z,44.00
2022-12-20T08:12:42.253Z,42.05
2022-12-20T08:15:10.036Z,46.20
2022-12-20T08:17:37.779Z,41.10
2022-12-20T08:20:07.060Z,43.25
2022-12-20T08:22:34.821Z,44.67
2022-12-20T08:25:02.786Z,45.22
2022-12-20T08:27:30.411Z,40.97
2022-12-20T08:29:58.321Z,45.35
2022-12-20T08:32:25.969Z,39.65
2022-12-20T08:34:53.805Z,44.25
2022-12-20T08:37:21.336Z,49.80
2022-12-20T08:39:49.029Z,55.90
2022-12-20T08:42:16.563Z,64.25
2022-12-20T08:44:44.801Z,44.40
2022-12-20T08:47:12.613Z,45.17
2022-12-20T08:49:47.219Z,49.63
2022-12-20T08:52:15.344Z,41.33
2022-12-20T08:54:42.958Z,47.88
2022-12-20T08:57:10.458Z,41.00
2022-12-20T08:59:38.187Z,40.97
2022-12-20T09:02:06.335Z,40.38
2022-12-20T09:04:34.916Z,43.17
2022-12-20T09:07:02.548Z,42.83
2022-12-20T09:09:30.148Z,41.80
2022-12-20T09:11:57.732Z,42.08
2022-12-20T09:14:25.596Z,39.97
2022-12-20T09:16:53.292Z,44.22
2022-12-20T09:19:20.993Z,52.50
2022-12-20T09:21:52.825Z,51.92
2022-12-20T09:24:21.111Z,43.50
2022-12-20T09:26:52.073Z,42.67
2022-12-20T09:32:12.938Z,41.28
2022-12-20T09:37:13.994Z,41.50
2022-12-20T09:45:28.815Z,45.10
2022-12-20T09:48:04.144Z,34.38
2022-12-20T09:50:50.252Z,41.92
2022-12-20T09:53:30.352Z,37.90
2022-12-20T09:56:09.505Z,38.33
2022-12-20T09:58:56.461Z,39.90
2022-12-20T10:01:28.764Z,39.80
2022-12-20T10:04:00.399Z,37.17
2022-12-20T10:06:36.617Z,43.22
2022-12-20T10:09:06.229Z,40.35
2022-12-20T10:11:52.900Z,37.33
2022-12-20T10:14:24.475Z,37.38
2022-12-20T10:16:55.291Z,41.47
2022-12-20T10:19:29.413Z,38.58
2022-12-20T10:24:32.250Z,36.47
2022-12-20T10:27:04.441Z,35.67
2022-12-20T10:29:32.666Z,34.97
2022-12-20T10:32:01.965Z,37.20
2022-12-20T10:34:36.590Z,36.17
2022-12-20T10:37:13.201Z,39.15
2022-12-20T10:39:45.230Z,36.05
2022-12-20T10:42:38.724Z,40.22
2022-12-20T10:45:25.035Z,33.35
2022-12-20T10:47:52.770Z,37.63
2022-12-20T10:50:21.485Z,38.95
2022-12-20T10:53:04.640Z,35.20
2022-12-20T10:55:42.540Z,37.88
2022-12-20T10:58:16.389Z,36.30
2022-12-20T11:00:44.709Z,37.78
2022-12-20T11:03:24.906Z,35.55
2022-12-20T11:06:02.077Z,33.88
2022-12-20T11:08:39.252Z,38.10
2022-12-20T11:11:21.043Z,32.50
2022-12-20T11:13:49.231Z,36.55
2022-12-20T11:16:25.419Z,35.47
2022-12-20T11:19:01.381Z,34.33
2022-12-20T11:21:41.216Z,39.90
2022-12-20T11:24:12.854Z,34.00
2022-12-20T11:26:59.750Z,34.40
2022-12-20T11:29:41.300Z,33.72
2022-12-20T11:32:09.185Z,28.92
2022-12-20T11:34:42.401Z,31.73
2022-12-20T11:37:11.805Z,32.47
2022-12-20T11:39:52.770Z,32.60
2022-12-20T11:42:29.743Z,31.02
2022-12-20T11:45:09.350Z,40.85
2022-12-20T11:47:49.469Z,37.90
2022-12-20T11:50:41.141Z,35.92
2022-12-20T11:53:12.879Z,35.67
2022-12-20T11:55:46.135Z,34.60
2022-12-20T11:58:19.924Z,28.67
2022-12-20T12:03:20.238Z,32.28
2022-12-20T12:05:52.702Z,32.42
2022-12-20T12:08:33.793Z,30.67
2022-12-20T12:11:07.114Z,33.05
2022-12-20T12:13:37.617Z,36.07
2022-12-20T12:16:37.517Z,34.78
2022-12-20T12:19:18.946Z,33.15
2022-12-20T12:22:00.342Z,33.85
2022-12-20T12:24:30.989Z,32.88
2022-12-20T12:27:00.127Z,36.20
2022-12-20T12:29:29.641Z,31.27
2022-12-20T12:31:58.423Z,37.90
2022-12-20T12:34:38.228Z,33.03
2022-12-20T12:37:14.701Z,35.72
2022-12-20T12:39:45.117Z,34.63
2022-12-20T12:42:14.293Z,33.63
2022-12-20T12:44:54.729Z,36.00
2022-12-20T12:47:41.951Z,37.05
2022-12-20T12:50:16.743Z,32.20
2022-12-20T12:52:51.828Z,31.08
2022-12-20T12:55:37.954Z,35.60
2022-12-20T12:58:24.048Z,31.83
2022-12-20T13:00:51.710Z,31.85
2022-12-20T13:03:48.818Z,35.42
2022-12-20T13:06:31.347Z,32.75
2022-12-20T13:09:04.845Z,34.70
2022-12-20T13:11:36.097Z,38.67
2022-12-20T13:14:32.928Z,31.42
2022-12-20T13:17:16.195Z,33.22
2022-12-20T13:19:54.468Z,35.80
2022-12-20T13:22:25.745Z,34.75
2022-12-20T13:24:57.125Z,35.45
2022-12-20T13:27:26.751Z,33.13
2022-12-20T13:30:03.092Z,32.20
2022-12-20T13:32:49.083Z,36.17
2022-12-20T13:35:25.798Z,38.85
2022-12-20T13:37:57.980Z,38.65
2022-12-20T13:40:43.595Z,40.63
2022-12-20T13:43:23.513Z,45.05
2022-12-20T13:45:59.683Z,41.85
2022-12-20T13:48:28.891Z,41.15
2022-12-20T13:50:56.800Z,44.33
2022-12-20T13:53:25.729Z,38.58
2022-12-20T13:55:53.035Z,40.80
2022-12-20T13:58:27.340Z,42.15
2022-12-20T14:00:55.257Z,43.97
2022-12-20T14:03:30.050Z,44.08
2022-12-20T14:05:59.533Z,42.55
2022-12-20T14:08:30.082Z,45.13
2022-12-20T14:11:07.640Z,44.67
2022-12-20T14:13:35.183Z,46.30
2022-12-20T14:16:11.318Z,44.63
2022-12-20T14:18:38.981Z,41.30
2022-12-20T14:21:07.229Z,45.05
2022-12-20T14:23:53.885Z,41.80
2022-12-20T14:26:24.433Z,40.90
2022-12-20T14:28:53.457Z,48.08
2022-12-20T14:31:26.967Z,49.78
2022-12-20T14:34:03.804Z,47.92
2022-12-20T14:36:31.981Z,50.13
2022-12-20T14:38:59.563Z,45.47
2022-12-20T14:41:30.404Z,49.35
2022-12-20T14:43:59.239Z,46.47
2022-12-20T14:46:26.943Z,49.83
2022-12-20T14:49:27.352Z,44.45
2022-12-20T14:52:06.862Z,50.05
2022-12-20T14:55:07.322Z,48.78
2022-12-20T14:57:25.680Z,45.92
2022-12-20T15:00:07.962Z,46.50
2022-12-20T15:02:37.852Z,44.53
2022-12-20T15:05:09.569Z,45.33
2022-12-20T15:07:41.996Z,39.90
2022-12-20T15:10:09.836Z,50.08
2022-12-20T15:12:41.936Z,43.95
2022-12-20T15:15:28.896Z,47.67
2022-12-20T15:17:57.244Z,53.15
2022-12-20T15:20:24.708Z,43.17
2022-12-20T15:22:52.518Z,41.42
2022-12-20T15:25:20.328Z,48.00
2022-12-20T15:27:47.918Z,48.20
2022-12-20T15:30:15.500Z,48.17
2022-12-20T15:32:54.713Z,49.92
2022-12-20T15:35:23.003Z,57.45
2022-12-20T15:37:50.521Z,55.92
2022-12-20T15:40:18.300Z,52.20
2022-12-20T15:42:45.666Z,52.05
2022-12-20T15:45:14.209Z,50.83
2022-12-20T15:47:41.595Z,48.13
2022-12-20T15:50:09.456Z,47.70
2022-12-20T15:52:37.119Z,53.60
2022-12-20T15:55:04.854Z,46.35
2022-12-20T15:57:32.388Z,58.00
2022-12-20T16:00:02.339Z,50.55
2022-12-20T16:02:31.539Z,54.15
2022-12-20T16:04:59.582Z,58.17
2022-12-20T16:07:27.476Z,52.85
2022-12-20T16:09:55.276Z,58.72
2022-12-20T16:12:33.932Z,66.93
2022-12-20T16:15:01.488Z,58.33
2022-12-20T16:17:28.918Z,57.17
2022-12-20T16:19:56.311Z,55.30
2022-12-20T16:22:25.328Z,54.47
2022-12-20T16:24:52.730Z,53.08
2022-12-20T16:27:21.173Z,55.10
2022-12-20T16:29:49.046Z,55.85
2022-12-20T16:32:17.434Z,54.25
2022-12-20T16:34:45.663Z,54.47
2022-12-20T16:37:13.389Z,51.13
2022-12-20T16:39:41.144Z,50.78
2022-12-20T16:42:15.644Z,53.38
2022-12-20T16:44:45.740Z,54.30
2022-12-20T16:47:14.382Z,51.83
2022-12-20T16:49:49.601Z,53.33
2022-12-20T16:52:20.550Z,59.72
2022-12-20T16:54:48.064Z,57.17
2022-12-20T16:57:15.430Z,64.45
2022-12-20T16:59:42.850Z,56.58
2022-12-20T17:02:20.431Z,63.08
2022-12-20T17:04:47.959Z,64.18
2022-12-20T17:07:16.405Z,61.42
2022-12-20T17:12:28.711Z,60.78
2022-12-20T17:14:56.847Z,52.03
2022-12-20T17:17:24.229Z,50.88
2022-12-20T17:19:51.777Z,45.45
2022-12-20T17:22:25.621Z,51.50
2022-12-20T17:24:53.195Z,47.33
2022-12-20T17:27:21.219Z,47.47
2022-12-20T17:29:50.850Z,49.67
2022-12-20T17:32:26.112Z,50.33
2022-12-20T17:34:53.767Z,47.58
2022-12-20T17:37:21.775Z,44.13
2022-12-20T17:39:49.307Z,42.30
2022-12-20T17:42:17.266Z,44.58
2022-12-20T17:44:46.484Z,44.63
2022-12-20T17:47:14.343Z,48.33
2022-12-20T17:49:42.138Z,47.85
2022-12-20T17:52:14.198Z,45.92
2022-12-20T17:54:41.945Z,44.67
2022-12-20T17:57:13.809Z,50.30
2022-12-20T17:59:41.509Z,40.88
2022-12-20T18:02:22.622Z,49.65
2022-12-20T18:04:50.399Z,47.25
2022-12-20T18:07:18.064Z,53.30
2022-12-20T18:09:47.399Z,53.65
2022-12-20T18:12:14.745Z,51.70
2022-12-20T18:14:42.315Z,52.70
2022-12-20T18:17:10.168Z,43.63
2022-12-20T18:19:37.851Z,50.00
2022-12-20T18:22:05.363Z,42.30
2022-12-20T18:24:33.311Z,43.47
2022-12-20T18:27:00.901Z,39.17
2022-12-20T18:29:29.124Z,47.05
2022-12-20T18:31:57.052Z,44.25
2022-12-20T18:34:24.954Z,43.90
2022-12-20T18:36:52.481Z,40.97
2022-12-20T18:39:19.914Z,44.28
2022-12-20T18:41:48.816Z,48.85
2022-12-20T18:44:16.547Z,49.92
2022-12-20T18:46:43.999Z,53.95
2022-12-20T18:49:11.761Z,49.83
2022-12-20T18:51:39.226Z,52.10
2022-12-20T18:54:08.270Z,56.30
2022-12-20T18:56:37.639Z,54.83
2022-12-20T18:59:11.585Z,57.35
2022-12-20T19:01:41.188Z,53.47
2022-12-20T19:04:09.167Z,52.88
2022-12-20T19:06:37.537Z,54.95
2022-12-20T19:09:06.449Z,54.03
2022-12-20T19:11:34.331Z,58.35
2022-12-20T19:14:02.144Z,55.33
2022-12-20T19:19:18.029Z,55.10
2022-12-20T19:21:45.552Z,60.10
2022-12-20T19:24:13.153Z,57.70
2022-12-20T19:26:41.113Z,51.28
2022-12-20T19:29:09.113Z,50.92
2022-12-20T19:31:37.978Z,98.30
2022-12-20T19:34:11.415Z,71.40
2022-12-20T19:36:40.201Z,56.67
2022-12-20T19:39:09.295Z,52.53
2022-12-20T19:41:37.065Z,52.17
2022-12-20T19:44:06.471Z,62.45
2022-12-20T19:46:34.291Z,52.35
2022-12-20T19:49:01.933Z,52.83
2022-12-20T19:51:29.503Z,53.47
2022-12-20T19:53:57.903Z,51.88
2022-12-20T19:56:26.880Z,56.25
2022-12-20T19:58:55.495Z,50.58
2022-12-20T20:01:26.102Z,57.55
2022-12-20T20:03:58.759Z,57.05
2022-12-20T20:06:26.778Z,55.78
2022-12-20T20:08:54.541Z,55.45
2022-12-20T20:11:22.257Z,51.90
2022-12-20T20:13:49.760Z,45.28
2022-12-20T20:16:22.210Z,44.92
2022-12-20T20:18:50.860Z,45.83
2022-12-20T20:21:21.482Z,44.28
2022-12-20T20:23:49.608Z,47.33
2022-12-20T20:26:18.478Z,49.55
2022-12-20T20:28:45.934Z,47.47
2022-12-20T20:31:14.650Z,47.13
2022-12-20T20:33:42.905Z,44.85
2022-12-20T20:36:14.692Z,48.58
2022-12-20T20:38:42.501Z,51.92
2022-12-20T20:41:10.173Z,48.35
2022-12-20T20:43:38.341Z,47.38
2022-12-20T20:46:06.744Z,41.50
2022-12-20T20:48:34.361Z,47.97
2022-12-20T20:51:02.178Z,54.75
2022-12-20T20:53:33.756Z,45.97
2022-12-20T20:56:02.535Z,42.58
2022-12-20T20:58:29.977Z,47.05
2022-12-20T21:00:59.820Z,45.90
2022-12-20T21:03:28.070Z,44.55
2022-12-20T21:08:44.867Z,52.60
2022-12-20T21:11:12.525Z,52.05
2022-12-20T21:13:40.185Z,48.63
2022-12-20T21:16:17.627Z,47.35
2022-12-20T21:18:45.264Z,53.60
2022-12-20T21:21:13.534Z,49.38
2022-12-20T21:23:44.648Z,50.13
2022-12-20T21:26:12.354Z,52.95
2022-12-20T21:28:40.852Z,52.15
2022-12-20T21:31:12.234Z,52.45
2022-12-20T21:33:40.300Z,59.25
2022-12-20T21:36:09.008Z,61.28
2022-12-20T21:38:36.491Z,55.47
2022-12-20T21:41:04.781Z,54.47
2022-12-20T21:43:32.325Z,58.03
2022-12-20T21:46:00.384Z,66.50
2022-12-20T21:48:30.100Z,52.80
2022-12-20T21:51:00.351Z,59.58
2022-12-20T21:53:27.971Z,66.20
2022-12-20T21:55:59.347Z,62.90
2022-12-20T21:58:28.037Z,64.70
2022-12-20T22:00:56.362Z,64.57
2022-12-20T22:03:24.844Z,63.22
2022-12-20T22:05:54.047Z,60.78
2022-12-20T22:08:22.338Z,48.55
2022-12-20T22:10:53.148Z,56.42
2022-12-20T22:13:20.949Z,55.20
2022-12-20T22:15:48.444Z,54.25
2022-12-20T22:18:16.079Z,47.35
2022-12-20T22:20:45.143Z,49.97
2022-12-20T22:23:12.860Z,50.17
2022-12-20T22:25:40.544Z,46.72
2022-12-20T22:28:08.307Z,47.08
2022-12-20T22:30:35.997Z,48.33
2022-12-20T22:33:03.624Z,52.67
2022-12-20T22:35:31.060Z,48.38
2022-12-20T22:37:58.504Z,51.85
2022-12-20T22:40:26.231Z,47.58
2022-12-20T22:42:53.699Z,49.17
2022-12-20T22:45:21.399Z,50.30
2022-12-20T22:47:48.833Z,46.60
2022-12-20T22:50:16.971Z,50.25
2022-12-20T22:52:44.685Z,47.20
2022-12-20T22:55:12.573Z,60.30
2022-12-20T22:57:40.107Z,54.60
2022-12-20T23:00:13.387Z,55.13
2022-12-20T23:02:44.072Z,59.63
2022-12-20T23:05:11.904Z,57.80
2022-12-20T23:07:39.572Z,55.75
2022-12-20T23:10:27.362Z,52.58
2022-12-20T23:13:13.974Z,55.70
2022-12-20T23:15:41.543Z,58.75
2022-12-20T23:18:09.233Z,55.15
2022-12-20T23:20:55.593Z,60.53
2022-12-20T23:23:23.283Z,57.20
2022-12-20T23:25:50.797Z,51.80
2022-12-20T23:28:18.343Z,50.05
2022-12-20T23:30:45.763Z,55.42
2022-12-20T23:33:13.505Z,52.80
2022-12-20T23:35:41.164Z,55.55
2022-12-20T23:38:08.878Z,58.28
2022-12-20T23:40:36.263Z,51.58
2022-12-20T23:43:03.804Z,56.25
2022-12-20T23:45:31.332Z,56.05
2022-12-20T23:47:58.696Z,56.65
2022-12-20T23:50:26.500Z,49.13
2022-12-20T23:52:54.046Z,49.58
2022-12-20T23:55:21.595Z,50.38
2022-12-20T23:57:48.930Z,51.38
